Time;durP1;ratioP1;P1;durP2;ratioP2;P2;SDS_P1;SDS_P2;PMS_P1;PMS_P2;Temp;Humidity;BMP_temperature;BMP_pressure;BME280_temperature;BME280_humidity;BME280_pressure;Samples;Min_cycle;Max_cycle;Signal;HPM_P1;HPM_P2
2022/12/26 00:01:07;;;;;;;19.17;14.93;;;7.50;99.90;;;;;;5063878;28;20253;-50
2022/12/26 00:03:35;;;;;;;20.40;13.70;;;7.40;99.90;;;;;;5053184;28;20239;-49
2022/12/26 00:06:11;;;;;;;20.47;14.03;;;7.60;99.90;;;;;;5052995;28;20239;-50
2022/12/26 00:08:39;;;;;;;22.03;14.43;;;7.60;99.90;;;;;;5052612;28;20637;-51
2022/12/26 00:11:07;;;;;;;21.60;14.00;;;7.60;99.90;;;;;;5052616;28;20239;-51
2022/12/26 00:13:35;;;;;;;35.50;26.03;;;7.40;99.90;;;;;;5052885;28;20267;-50
2022/12/26 00:16:09;;;;;;;25.30;16.87;;;7.40;99.90;;;;;;5052624;28;20235;-52
2022/12/26 00:18:38;;;;;;;29.80;19.27;;;7.70;99.90;;;;;;5052459;28;20638;-50
2022/12/26 00:21:09;;;;;;;31.47;18.23;;;7.70;99.90;;;;;;5052637;28;20223;-49
2022/12/26 00:23:39;;;;;;;27.07;17.00;;;7.70;99.90;;;;;;5052696;28;20718;-49
2022/12/26 00:26:09;;;;;;;23.97;16.30;;;7.60;99.90;;;;;;5052783;28;20232;-50
2022/12/26 00:28:37;;;;;;;21.43;15.00;;;7.50;99.90;;;;;;5051967;28;20719;-50
2022/12/26 00:31:07;;;;;;;22.57;15.10;;;7.60;99.90;;;;;;5052100;28;20245;-49
2022/12/26 00:33:36;;;;;;;24.07;17.07;;;7.70;99.90;;;;;;5052159;28;20235;-48
2022/12/26 00:36:06;;;;;;;20.43;14.13;;;7.70;99.90;;;;;;5052637;28;20228;-49
2022/12/26 00:38:36;;;;;;;23.70;15.40;;;7.70;99.90;;;;;;5052646;28;20235;-51
2022/12/26 00:41:05;;;;;;;23.37;14.03;;;7.80;99.90;;;;;;5052723;28;20232;-51
2022/12/26 00:43:33;;;;;;;20.97;14.83;;;7.90;99.90;;;;;;5052315;28;20220;-49
2022/12/26 00:46:01;;;;;;;21.57;14.00;;;7.70;99.90;;;;;;5052451;28;20278;-50
2022/12/26 00:48:30;;;;;;;20.93;13.63;;;7.80;99.90;;;;;;5055360;28;20215;-50
2022/12/26 00:50:58;;;;;;;22.67;15.07;;;8.00;99.90;;;;;;5056540;28;20261;-48
2022/12/26 00:53:27;;;;;;;21.17;13.73;;;7.90;99.90;;;;;;5056405;28;20236;-49
2022/12/26 00:55:57;;;;;;;20.50;13.47;;;8.00;99.90;;;;;;5056541;28;20255;-50
2022/12/26 00:58:25;;;;;;;21.73;14.50;;;8.00;99.90;;;;;;5055941;28;20254;-52
2022/12/26 01:00:54;;;;;;;20.53;14.73;;;7.90;99.90;;;;;;5055991;28;20231;-49
2022/12/26 01:03:23;;;;;;;22.70;14.10;;;7.70;99.90;;;;;;5056232;28;20324;-51
2022/12/26 01:05:52;;;;;;;23.17;13.53;;;7.80;99.90;;;;;;5056048;28;20230;-50
2022/12/26 01:08:20;;;;;;;21.90;13.87;;;8.00;99.90;;;;;;5056107;28;20224;-48
2022/12/26 01:10:52;;;;;;;24.10;14.63;;;8.00;99.90;;;;;;5056002;28;20228;-50
2022/12/26 01:13:21;;;;;;;22.50;13.97;;;7.90;99.90;;;;;;5056142;28;20560;-50
2022/12/26 01:15:51;;;;;;;21.67;13.27;;;7.70;99.90;;;;;;5055877;28;20227;-51
2022/12/26 01:18:21;;;;;;;20.10;13.30;;;7.60;99.90;;;;;;5055903;28;20315;-50
2022/12/26 01:20:49;;;;;;;21.17;13.00;;;7.60;99.90;;;;;;5055911;28;20630;-50
2022/12/26 01:23:17;;;;;;;19.77;12.17;;;7.70;99.90;;;;;;5055605;28;20253;-49
2022/12/26 01:25:45;;;;;;;19.50;12.63;;;7.60;99.90;;;;;;5055479;28;20232;-51
2022/12/26 01:28:35;;;;;;;18.67;11.83;;;7.80;99.90;;;;;;5055593;28;20226;-47
2022/12/26 01:31:04;;;;;;;18.70;12.13;;;7.70;99.90;;;;;;5055240;28;20241;-50
2022/12/26 01:33:33;;;;;;;18.00;11.20;;;7.90;99.90;;;;;;5055492;28;20626;-51
2022/12/26 01:36:01;;;;;;;19.50;11.73;;;7.70;99.90;;;;;;5058647;28;20229;-48
2022/12/26 01:38:29;;;;;;;18.90;11.07;;;7.70;99.90;;;;;;5075575;28;20242;-50
2022/12/26 01:43:58;;;;;;;20.17;11.50;;;7.90;99.90;;;;;;5074681;28;20235;-48
2022/12/26 01:46:31;;;;;;;17.53;11.03;;;7.80;99.90;;;;;;5075179;28;20227;-52
2022/12/26 01:49:06;;;;;;;18.93;10.47;;;7.80;99.90;;;;;;5075559;28;20222;-49
2022/12/26 01:51:39;;;;;;;16.53;9.63;;;7.80;99.90;;;;;;5075233;28;20235;-50
2022/12/26 01:54:09;;;;;;;19.70;9.43;;;7.90;99.90;;;;;;5075492;28;20234;-49
2022/12/26 01:56:58;;;;;;;18.40;8.60;;;7.90;99.90;;;;;;5058595;28;20220;-48
2022/12/26 01:59:31;;;;;;;19.17;9.50;;;8.00;99.90;;;;;;5054032;28;20216;-49
2022/12/26 02:02:00;;;;;;;19.57;8.90;;;8.00;99.90;;;;;;5054529;28;20240;-50
2022/12/26 02:07:23;;;;;;;16.73;9.00;;;7.90;99.90;;;;;;5054902;28;20239;-48
2022/12/26 02:09:51;;;;;;;18.23;9.23;;;7.80;99.90;;;;;;5054849;28;20243;-50
2022/12/26 02:12:23;;;;;;;18.73;9.27;;;8.00;99.90;;;;;;5055144;28;20232;-49
2022/12/26 02:15:10;;;;;;;17.67;8.50;;;7.90;99.90;;;;;;5055057;28;20215;-51
2022/12/26 02:17:38;;;;;;;19.53;9.87;;;7.90;99.90;;;;;;5054880;28;20234;-52
2022/12/26 02:20:17;;;;;;;17.90;9.20;;;8.00;99.90;;;;;;5054486;28;20242;-50
2022/12/26 02:23:25;;;;;;;24.00;10.87;;;7.90;99.90;;;;;;5054509;28;20281;-51
2022/12/26 02:26:33;;;;;;;20.73;9.40;;;8.00;99.90;;;;;;5054465;28;20710;-51
2022/12/26 02:29:38;;;;;;;20.13;9.63;;;8.00;99.90;;;;;;5033757;28;20243;-49
2022/12/26 02:32:14;;;;;;;19.10;9.40;;;8.00;99.90;;;;;;5053799;28;20281;-48
2022/12/26 02:34:52;;;;;;;20.00;9.27;;;8.00;99.90;;;;;;5054497;28;20583;-51
2022/12/26 02:37:31;;;;;;;21.07;9.23;;;8.10;99.90;;;;;;5054597;28;20765;-48
2022/12/26 02:40:11;;;;;;;22.17;9.83;;;8.10;99.90;;;;;;5054311;28;20227;-47
2022/12/26 02:42:51;;;;;;;20.97;9.07;;;8.10;99.90;;;;;;5054388;28;20244;-50
2022/12/26 02:48:19;;;;;;;22.70;9.40;;;8.10;99.90;;;;;;5054235;28;20220;-50
2022/12/26 03:14:05;;;;;;;26.40;12.77;;;8.00;99.90;;;;;;5054019;28;20234;-51
2022/12/26 03:19:22;;;;;;;22.83;11.27;;;8.10;99.90;;;;;;5053645;28;20278;-49
2022/12/26 03:21:51;;;;;;;22.83;11.97;;;7.90;99.90;;;;;;5053772;28;20224;-51
2022/12/26 03:24:21;;;;;;;25.67;12.50;;;8.00;99.90;;;;;;5053458;28;20226;-48
2022/12/26 03:26:53;;;;;;;21.80;12.00;;;7.80;99.90;;;;;;5053110;28;20228;-49
2022/12/26 03:32:11;;;;;;;21.93;11.70;;;7.90;99.90;;;;;;5052800;28;20696;-48
2022/12/26 03:34:42;;;;;;;20.17;11.13;;;7.90;99.90;;;;;;5053257;28;20234;-50
2022/12/26 03:37:43;;;;;;;23.57;12.53;;;8.00;99.90;;;;;;5053429;28;20224;-47
2022/12/26 04:20:53;;;;;;;26.60;15.43;;;7.80;99.90;;;;;;5032913;28;20241;-50
2022/12/26 04:46:20;;;;;;;20.67;13.50;;;7.90;99.90;;;;;;5052780;28;20263;-51
2022/12/26 04:51:39;;;;;;;18.90;12.67;;;7.80;99.90;;;;;;5034879;28;20228;-50
2022/12/26 04:54:07;;;;;;;18.87;13.13;;;7.90;99.90;;;;;;5052279;28;20223;-48
2022/12/26 04:56:36;;;;;;;21.30;13.40;;;7.90;99.90;;;;;;5051911;28;20223;-47
2022/12/26 04:59:04;;;;;;;21.03;14.33;;;7.90;99.90;;;;;;5052272;28;20565;-49
2022/12/26 05:10:08;;;;;;;23.00;14.53;;;7.90;99.90;;;;;;5052145;28;20224;-48
2022/12/26 05:12:36;;;;;;;23.80;15.43;;;7.90;99.90;;;;;;5051883;28;20239;-49
2022/12/26 05:15:05;;;;;;;22.07;15.03;;;7.90;99.90;;;;;;5051568;28;20227;-49
2022/12/26 05:28:42;;;;;;;26.00;16.00;;;7.90;99.90;;;;;;5051578;28;20228;-48
2022/12/26 05:31:11;;;;;;;25.57;15.43;;;8.00;99.90;;;;;;5031658;28;20243;-50
2022/12/26 05:36:29;;;;;;;28.40;16.63;;;8.00;99.90;;;;;;5042160;28;20285;-48
2022/12/26 05:38:57;;;;;;;25.90;15.93;;;8.00;99.90;;;;;;5055472;28;20228;-49
2022/12/26 05:41:25;;;;;;;26.50;16.57;;;8.00;99.90;;;;;;5055693;28;20234;-49
2022/12/26 05:43:53;;;;;;;27.93;17.53;;;8.00;99.90;;;;;;5055662;28;20687;-47
2022/12/26 05:46:21;;;;;;;26.10;16.07;;;8.00;99.90;;;;;;5055767;28;20286;-49
2022/12/26 05:48:51;;;;;;;25.90;15.77;;;8.00;99.90;;;;;;5055447;28;20228;-48
2022/12/26 05:51:20;;;;;;;27.90;16.65;;;8.00;99.90;;;;;;5055233;28;20223;-49
2022/12/26 05:53:48;;;;;;;26.07;15.77;;;7.90;99.90;;;;;;5055412;28;20228;-48
2022/12/26 05:56:17;;;;;;;23.97;15.70;;;7.90;99.90;;;;;;5055430;28;20223;-50
2022/12/26 05:58:46;;;;;;;23.53;14.57;;;8.00;99.90;;;;;;5051736;28;20239;-51
2022/12/26 06:01:15;;;;;;;24.57;14.90;;;8.00;99.90;;;;;;5054770;28;20236;-51
2022/12/26 06:03:47;;;;;;;26.33;15.30;;;8.00;99.90;;;;;;5054997;28;20220;-50
2022/12/26 06:06:17;;;;;;;24.47;14.87;;;8.00;99.90;;;;;;5035295;28;20319;-52
2022/12/26 06:08:48;;;;;;;23.90;14.97;;;8.00;99.90;;;;;;5035185;28;20233;-50
2022/12/26 06:11:17;;;;;;;24.43;15.13;;;8.00;99.90;;;;;;5035225;28;20228;-50
2022/12/26 06:13:45;;;;;;;21.13;14.20;;;8.00;99.90;;;;;;5034976;28;21333;-52
2022/12/26 06:16:15;;;;;;;23.70;15.17;;;8.00;99.90;;;;;;5035221;28;20585;-51
2022/12/26 06:18:44;;;;;;;23.97;14.03;;;8.00;99.90;;;;;;5034596;28;20309;-50
2022/12/26 06:21:19;;;;;;;24.27;15.27;;;8.10;99.90;;;;;;5035093;28;20236;-49
2022/12/26 06:23:47;;;;;;;24.87;15.37;;;8.10;99.90;;;;;;5035264;28;20676;-49
2022/12/26 06:26:16;;;;;;;25.37;15.67;;;8.10;99.90;;;;;;5045211;28;20228;-50
2022/12/26 06:28:45;;;;;;;24.53;16.07;;;8.10;99.90;;;;;;5050820;28;20234;-50
2022/12/26 06:31:16;;;;;;;24.33;15.90;;;8.10;99.90;;;;;;5054202;28;20719;-48
2022/12/26 06:33:45;;;;;;;26.93;16.40;;;8.10;99.90;;;;;;5054006;28;20234;-48
2022/12/26 06:36:15;;;;;;;28.10;17.43;;;8.10;99.90;;;;;;5054238;28;20239;-49
2022/12/26 06:38:45;;;;;;;28.93;16.73;;;8.10;99.90;;;;;;5054425;28;20235;-50
2022/12/26 06:41:16;;;;;;;26.73;16.77;;;8.20;99.90;;;;;;5054434;28;20650;-49
2022/12/26 06:43:44;;;;;;;25.77;16.13;;;8.10;99.90;;;;;;5054414;28;20687;-51
2022/12/26 06:46:16;;;;;;;25.80;15.33;;;8.20;99.90;;;;;;5054449;28;20851;-50
2022/12/26 06:48:44;;;;;;;26.77;16.80;;;8.20;99.90;;;;;;5054339;28;20238;-47
2022/12/26 06:51:15;;;;;;;28.60;17.17;;;8.20;99.90;;;;;;5054093;28;20228;-49
2022/12/26 06:53:45;;;;;;;31.17;16.90;;;8.20;99.90;;;;;;5054186;28;20240;-49
2022/12/26 06:56:15;;;;;;;31.17;16.73;;;8.20;99.90;;;;;;5054286;28;20225;-49
2022/12/26 06:58:44;;;;;;;33.23;18.57;;;8.20;99.90;;;;;;5050594;28;20231;-51
2022/12/26 07:01:14;;;;;;;34.57;19.00;;;8.20;99.90;;;;;;5033805;28;20299;-49
2022/12/26 07:03:43;;;;;;;33.90;18.37;;;8.20;99.90;;;;;;5052932;28;20307;-50
2022/12/26 07:06:23;;;;;;;33.87;19.60;;;8.20;99.90;;;;;;5040304;28;20223;-50
2022/12/26 07:08:53;;;;;;;33.50;19.53;;;8.30;99.90;;;;;;5054061;28;20228;-48
2022/12/26 07:11:23;;;;;;;38.73;22.43;;;8.30;99.90;;;;;;5053772;28;20230;-51
2022/12/26 07:13:52;;;;;;;36.33;22.13;;;8.30;99.90;;;;;;5054033;28;20244;-48
2022/12/26 07:16:20;;;;;;;33.73;21.00;;;8.30;99.90;;;;;;5053309;28;20227;-50
2022/12/26 07:18:48;;;;;;;32.57;20.63;;;8.20;99.90;;;;;;5053659;28;20339;-50
2022/12/26 07:21:16;;;;;;;38.30;22.27;;;8.30;99.90;;;;;;5053764;28;20227;-50
2022/12/26 07:23:45;;;;;;;33.20;21.67;;;8.30;99.90;;;;;;5052679;28;20238;-50
2022/12/26 07:26:15;;;;;;;34.07;22.13;;;8.30;99.90;;;;;;5053636;28;20223;-48
2022/12/26 07:28:43;;;;;;;33.70;21.10;;;8.20;99.90;;;;;;5049711;28;20239;-51
2022/12/26 07:31:16;;;;;;;35.90;22.97;;;8.30;99.90;;;;;;5033243;28;20236;-51
2022/12/26 07:33:47;;;;;;;35.30;21.83;;;8.30;99.90;;;;;;5052577;28;20235;-50
2022/12/26 07:36:16;;;;;;;34.40;22.53;;;8.30;99.90;;;;;;5053408;28;20254;-50
2022/12/26 07:38:44;;;;;;;34.73;22.83;;;8.40;99.90;;;;;;5053185;28;20232;-51
2022/12/26 07:44:01;;;;;;;35.07;22.70;;;8.40;99.90;;;;;;5051125;28;20228;-50
2022/12/26 07:46:30;;;;;;;34.87;24.20;;;8.40;99.90;;;;;;5052445;28;20220;-50
2022/12/26 07:48:58;;;;;;;34.20;22.43;;;8.40;99.90;;;;;;5052978;28;20228;-50
2022/12/26 07:51:27;;;;;;;36.60;23.77;;;8.40;99.90;;;;;;5052436;28;20695;-47
2022/12/26 07:53:55;;;;;;;35.57;23.33;;;8.40;99.90;;;;;;5052449;28;20231;-51
2022/12/26 07:56:23;;;;;;;38.47;24.80;;;8.40;99.90;;;;;;5052585;28;20662;-51
2022/12/26 07:58:52;;;;;;;34.97;23.50;;;8.40;99.90;;;;;;5052641;28;20223;-51
2022/12/26 08:01:21;;;;;;;36.40;24.70;;;8.40;99.90;;;;;;5052564;28;20232;-50
2022/12/26 08:03:50;;;;;;;34.90;23.77;;;8.40;99.90;;;;;;5050212;28;20671;-51
2022/12/26 08:06:18;;;;;;;37.27;24.83;;;8.40;99.90;;;;;;5053194;28;20258;-50
2022/12/26 08:08:47;;;;;;;40.07;25.33;;;8.40;99.90;;;;;;5052602;28;20228;-51
2022/12/26 08:11:20;;;;;;;39.47;25.00;;;8.50;99.90;;;;;;5053107;28;20223;-51
2022/12/26 08:13:48;;;;;;;40.17;24.77;;;8.40;99.90;;;;;;5052572;28;20590;-51
2022/12/26 08:16:16;;;;;;;40.73;25.67;;;8.50;99.90;;;;;;5052483;28;20227;-51
2022/12/26 08:18:46;;;;;;;36.73;24.13;;;8.40;99.90;;;;;;5052626;28;20247;-51
2022/12/26 08:21:15;;;;;;;37.77;23.67;;;8.40;99.90;;;;;;5052699;28;20726;-51
2022/12/26 08:23:44;;;;;;;35.63;23.77;;;8.40;99.90;;;;;;5052426;28;20223;-51
2022/12/26 08:26:19;;;;;;;38.97;25.27;;;8.40;99.90;;;;;;5052260;28;20223;-50
2022/12/26 08:28:47;;;;;;;37.07;24.53;;;8.40;99.90;;;;;;5049492;28;20648;-52
2022/12/26 08:31:17;;;;;;;37.50;24.00;;;8.40;99.90;;;;;;5051942;28;20239;-49
2022/12/26 08:33:46;;;;;;;39.33;24.47;;;8.40;99.90;;;;;;5052022;28;20281;-50
2022/12/26 08:36:17;;;;;;;38.47;24.23;;;8.40;99.90;;;;;;5051595;28;20232;-48
2022/12/26 08:38:46;;;;;;;36.77;24.03;;;8.40;99.90;;;;;;5052672;28;20592;-50
2022/12/26 08:41:16;;;;;;;37.17;24.03;;;8.40;99.90;;;;;;5052088;28;20230;-50
2022/12/26 08:43:47;;;;;;;37.57;25.43;;;8.40;99.90;;;;;;5051894;28;20259;-50
2022/12/26 08:46:36;;;;;;;40.60;25.47;;;8.40;99.90;;;;;;5052074;28;20224;-50
2022/12/26 08:49:05;;;;;;;38.60;25.40;;;8.50;99.90;;;;;;5052412;28;20239;-49
2022/12/26 08:51:33;;;;;;;38.13;24.77;;;8.60;99.90;;;;;;5038032;28;20233;-50
2022/12/26 08:54:02;;;;;;;37.47;24.70;;;8.60;99.90;;;;;;5032646;28;20267;-52
2022/12/26 08:56:30;;;;;;;39.63;26.10;;;8.60;99.90;;;;;;5042810;28;20231;-50
2022/12/26 08:58:58;;;;;;;39.57;25.77;;;8.50;99.90;;;;;;5052276;28;20212;-50
2022/12/26 09:01:27;;;;;;;42.77;26.43;;;8.60;99.90;;;;;;5051139;28;20277;-51
2022/12/26 09:03:57;;;;;;;38.40;25.37;;;8.60;99.90;;;;;;5050229;28;20242;-51
2022/12/26 09:06:27;;;;;;;40.23;25.97;;;8.60;99.90;;;;;;5051958;28;20576;-52
2022/12/26 09:08:55;;;;;;;39.10;25.20;;;8.60;99.90;;;;;;5049069;28;20233;-50
2022/12/26 09:11:26;;;;;;;38.57;24.63;;;8.60;99.90;;;;;;5055887;28;20270;-50
2022/12/26 09:13:55;;;;;;;36.87;23.63;;;8.60;99.90;;;;;;5038071;28;20239;-51
2022/12/26 09:16:26;;;;;;;38.90;25.70;;;8.60;99.90;;;;;;5056279;28;20235;-49
2022/12/26 09:19:01;;;;;;;39.83;25.70;;;8.60;99.90;;;;;;5055428;28;20243;-51
2022/12/26 09:21:31;;;;;;;36.73;24.07;;;8.60;99.90;;;;;;5055513;28;20228;-50
2022/12/26 09:24:01;;;;;;;37.97;24.83;;;8.60;99.90;;;;;;5055827;28;20232;-51
2022/12/26 09:26:29;;;;;;;39.53;25.73;;;8.60;99.90;;;;;;5054221;28;20234;-50
2022/12/26 09:28:57;;;;;;;37.80;24.33;;;8.60;99.90;;;;;;5054296;28;20548;-50
2022/12/26 09:31:28;;;;;;;36.97;23.50;;;8.70;99.90;;;;;;5054618;28;20738;-51
2022/12/26 09:33:56;;;;;;;37.57;25.13;;;8.70;99.90;;;;;;5055702;28;20251;-49
2022/12/26 09:36:26;;;;;;;49.07;32.47;;;8.70;99.90;;;;;;5060644;28;20227;-50
2022/12/26 09:38:57;;;;;;;49.57;31.37;;;8.70;99.90;;;;;;5057213;28;20224;-50
2022/12/26 09:41:44;;;;;;;41.97;26.93;;;8.70;99.90;;;;;;5055586;28;20220;-47
2022/12/26 09:44:19;;;;;;;39.13;25.07;;;8.70;99.90;;;;;;5055477;28;20220;-48
2022/12/26 09:46:58;;;;;;;37.83;25.03;;;8.70;99.90;;;;;;5055309;28;20228;-51
2022/12/26 09:49:30;;;;;;;34.53;23.97;;;8.70;99.90;;;;;;5055198;28;20239;-50
2022/12/26 09:52:01;;;;;;;33.33;23.33;;;8.70;99.90;;;;;;5055360;28;20219;-51
2022/12/26 09:54:38;;;;;;;32.67;21.93;;;8.70;99.90;;;;;;5054990;28;20726;-50
2022/12/26 09:57:11;;;;;;;33.57;21.40;;;8.70;99.90;;;;;;5055386;28;20230;-48
2022/12/26 09:59:51;;;;;;;33.63;22.03;;;8.70;99.90;;;;;;5054913;28;20231;-50
2022/12/26 10:02:22;;;;;;;27.07;18.93;;;8.70;99.90;;;;;;5053281;28;20223;-50
2022/12/26 10:04:50;;;;;;;29.23;20.23;;;8.70;99.90;;;;;;5055278;28;20227;-50
2022/12/26 10:07:27;;;;;;;30.97;20.63;;;8.70;99.90;;;;;;5055098;28;20745;-49
2022/12/26 10:10:04;;;;;;;28.37;19.47;;;8.70;99.90;;;;;;5055215;28;20242;-52
2022/12/26 10:12:40;;;;;;;28.67;19.83;;;8.70;99.90;;;;;;5044874;28;20228;-49
2022/12/26 10:15:19;;;;;;;31.17;19.13;;;8.70;99.90;;;;;;5050021;28;20235;-48
2022/12/26 10:17:53;;;;;;;31.97;20.17;;;8.80;99.90;;;;;;5059772;28;20259;-50
2022/12/26 10:20:27;;;;;;;26.63;19.50;;;8.80;99.90;;;;;;5058731;28;20267;-51
2022/12/26 10:23:31;;;;;;;30.67;20.87;;;8.80;99.90;;;;;;5063581;28;20690;-49
2022/12/26 10:26:08;;;;;;;32.87;21.07;;;8.80;99.90;;;;;;5016628;28;20230;-51
2022/12/26 10:28:39;;;;;;;32.97;20.73;;;8.80;99.90;;;;;;5058051;28;20238;-49
2022/12/26 10:31:13;;;;;;;33.40;21.53;;;8.90;99.90;;;;;;5058468;28;20240;-51
2022/12/26 10:33:46;;;;;;;33.33;22.23;;;8.90;99.90;;;;;;5050197;28;20288;-50
2022/12/26 10:36:26;;;;;;;30.73;19.90;;;9.00;99.90;;;;;;5054899;28;20737;-49
2022/12/26 10:38:56;;;;;;;32.23;21.40;;;9.00;99.90;;;;;;5068170;28;20227;-48
2022/12/26 10:41:32;;;;;;;30.67;20.67;;;9.00;99.90;;;;;;5066574;28;20323;-50
2022/12/26 10:44:00;;;;;;;32.47;20.43;;;9.00;99.90;;;;;;5065738;28;20227;-49
2022/12/26 10:47:01;;;;;;;34.10;21.80;;;9.10;99.90;;;;;;5067755;28;20228;-50
2022/12/26 10:49:30;;;;;;;29.03;20.63;;;9.00;99.90;;;;;;5066688;28;20237;-52
2022/12/26 10:52:01;;;;;;;29.50;20.10;;;9.10;99.90;;;;;;5068756;28;20226;-50
2022/12/26 10:54:30;;;;;;;36.07;21.53;;;9.00;99.90;;;;;;5068365;28;20219;-50
2022/12/26 10:57:01;;;;;;;29.57;19.83;;;9.10;99.90;;;;;;5067787;28;20219;-51
2022/12/26 10:59:40;;;;;;;34.30;18.60;;;9.00;99.90;;;;;;5063941;28;20227;-50
2022/12/26 11:02:15;;;;;;;26.47;19.50;;;9.10;99.90;;;;;;5065361;28;20706;-51
2022/12/26 11:05:00;;;;;;;29.07;19.43;;;9.00;99.90;;;;;;5066759;28;20211;-52
2022/12/26 11:07:51;;;;;;;27.40;19.50;;;9.00;99.90;;;;;;5067298;28;20813;-49
2022/12/26 11:10:21;;;;;;;31.00;20.43;;;9.10;99.90;;;;;;5065868;28;20230;-52
2022/12/26 11:12:53;;;;;;;26.90;19.03;;;9.10;99.90;;;;;;5064784;28;20691;-52
2022/12/26 11:15:26;;;;;;;26.47;18.43;;;9.10;99.90;;;;;;5064152;28;20651;-50
2022/12/26 11:18:06;;;;;;;25.63;18.47;;;9.20;99.90;;;;;;5065849;28;20576;-50
2022/12/26 11:20:34;;;;;;;27.80;20.17;;;9.20;99.90;;;;;;5065636;28;20611;-51
2022/12/26 11:23:22;;;;;;;24.37;18.83;;;9.30;99.90;;;;;;5065882;28;20270;-49
2022/12/26 11:25:53;;;;;;;24.67;18.23;;;9.30;99.90;;;;;;5065839;28;20243;-49
2022/12/26 11:28:29;;;;;;;26.07;18.10;;;9.40;99.90;;;;;;5065832;28;20226;-47
2022/12/26 11:30:59;;;;;;;25.73;19.27;;;9.40;99.90;;;;;;5066214;28;20241;-49
2022/12/26 11:33:30;;;;;;;24.23;17.77;;;9.30;99.90;;;;;;5064133;28;20613;-50
2022/12/26 11:36:08;;;;;;;24.83;16.23;;;9.30;99.90;;;;;;5066778;28;20694;-52
2022/12/26 11:38:47;;;;;;;23.13;16.60;;;9.40;99.90;;;;;;5066584;28;20230;-51
2022/12/26 11:41:31;;;;;;;24.63;16.23;;;9.30;99.90;;;;;;5064439;28;20230;-53
2022/12/26 11:44:12;;;;;;;20.13;15.83;;;9.30;99.90;;;;;;5065763;28;20242;-51
2022/12/26 11:46:42;;;;;;;20.20;15.67;;;9.30;99.90;;;;;;5065102;28;20227;-49
2022/12/26 11:49:19;;;;;;;20.03;15.30;;;9.20;99.90;;;;;;5065031;28;20628;-50
2022/12/26 11:51:49;;;;;;;17.97;13.67;;;9.20;99.90;;;;;;5062982;28;20645;-49
2022/12/26 11:54:33;;;;;;;20.93;13.60;;;9.20;99.90;;;;;;5066880;28;20230;-51
2022/12/26 11:57:20;;;;;;;20.77;14.50;;;9.20;99.90;;;;;;5064489;28;20222;-49
2022/12/26 11:59:52;;;;;;;18.97;12.70;;;9.10;99.90;;;;;;5063443;28;20262;-48
2022/12/26 12:02:26;;;;;;;17.97;13.80;;;9.10;99.90;;;;;;5064282;28;20694;-47
2022/12/26 12:04:58;;;;;;;16.37;13.10;;;9.00;99.90;;;;;;5064532;28;20230;-48
2022/12/26 12:07:43;;;;;;;19.17;13.43;;;9.10;99.90;;;;;;5063014;28;20277;-50
2022/12/26 12:10:41;;;;;;;17.57;13.07;;;9.10;99.90;;;;;;5065786;28;20227;-46
2022/12/26 12:13:17;;;;;;;16.80;12.40;;;9.10;99.90;;;;;;5064692;28;20242;-50
2022/12/26 12:15:52;;;;;;;17.40;12.60;;;9.10;99.90;;;;;;5062392;28;20276;-50
2022/12/26 12:18:32;;;;;;;17.77;12.50;;;9.10;99.90;;;;;;5063375;28;20227;-50
2022/12/26 12:21:10;;;;;;;17.40;12.23;;;9.20;99.90;;;;;;5062530;28;20227;-49
2022/12/26 12:23:50;;;;;;;15.50;11.70;;;9.20;99.90;;;;;;5053593;28;20238;-47
2022/12/26 12:26:26;;;;;;;11.53;10.33;;;9.20;99.90;;;;;;5052674;28;20235;-50
2022/12/26 12:29:19;;;;;;;15.90;10.73;;;9.10;99.90;;;;;;5052637;28;20215;-49
2022/12/26 12:32:00;;;;;;;16.90;8.87;;;9.10;99.90;;;;;;5041386;28;20582;-47
2022/12/26 12:34:43;;;;;;;10.30;8.50;;;9.00;99.90;;;;;;5047331;28;20627;-51
2022/12/26 12:37:22;;;;;;;10.27;8.20;;;9.10;99.90;;;;;;5052750;28;20236;-49
2022/12/26 12:39:59;;;;;;;9.83;6.97;;;9.00;99.90;;;;;;5051884;28;20516;-51
2022/12/26 12:42:39;;;;;;;8.33;6.37;;;9.00;99.90;;;;;;5052302;28;20219;-50
2022/12/26 12:45:25;;;;;;;7.13;5.23;;;9.00;99.90;;;;;;5056602;28;20709;-50
2022/12/26 12:48:10;;;;;;;6.53;4.33;;;9.00;99.90;;;;;;5056691;28;20282;-50
2022/12/26 12:50:45;;;;;;;7.57;4.40;;;8.90;99.90;;;;;;5056564;28;20227;-50
2022/12/26 12:53:25;;;;;;;6.47;3.60;;;9.00;99.90;;;;;;5056728;28;20625;-49
2022/12/26 12:56:11;;;;;;;7.07;2.93;;;9.00;99.90;;;;;;5056370;28;20224;-49
2022/12/26 12:58:49;;;;;;;5.47;2.27;;;8.90;99.90;;;;;;5055094;28;20220;-48
2022/12/26 13:01:21;;;;;;;4.57;1.90;;;8.90;99.90;;;;;;5056091;28;20231;-52
2022/12/26 13:03:58;;;;;;;5.67;1.40;;;8.80;99.90;;;;;;5055382;28;20556;-47
2022/12/26 13:06:34;;;;;;;3.87;1.20;;;8.70;99.90;;;;;;5054589;28;20714;-51
2022/12/26 13:09:07;;;;;;;2.43;1.00;;;8.60;99.90;;;;;;5055662;28;20230;-48
2022/12/26 13:11:39;;;;;;;4.67;1.20;;;8.60;99.90;;;;;;5055988;28;20232;-50
2022/12/26 13:14:13;;;;;;;3.67;1.20;;;8.60;99.90;;;;;;5055930;28;20679;-49
2022/12/26 13:16:46;;;;;;;3.90;1.10;;;8.50;99.90;;;;;;5055436;28;20242;-51
2022/12/26 13:19:20;;;;;;;2.60;0.93;;;8.60;99.90;;;;;;5036044;28;20236;-51
2022/12/26 13:21:50;;;;;;;4.53;1.10;;;8.50;99.90;;;;;;5035865;28;20235;-51
2022/12/26 13:24:31;;;;;;;2.73;0.63;;;8.50;99.90;;;;;;5036009;28;20571;-47
2022/12/26 13:27:05;;;;;;;2.30;1.00;;;8.40;99.90;;;;;;5042311;28;20232;-50
2022/12/26 13:29:39;;;;;;;4.30;1.23;;;8.30;99.90;;;;;;5055750;28;20231;-49
2022/12/26 13:32:19;;;;;;;5.17;1.33;;;8.20;99.90;;;;;;5055328;28;20273;-50
2022/12/26 13:34:50;;;;;;;3.13;1.03;;;8.20;99.90;;;;;;5054955;28;20231;-50
2022/12/26 13:37:52;;;;;;;5.40;1.23;;;8.10;99.90;;;;;;5035554;28;20240;-48
2022/12/26 13:40:24;;;;;;;5.73;1.57;;;8.10;99.90;;;;;;5053502;28;20223;-50
2022/12/26 13:45:55;;;;;;;8.90;1.50;;;8.00;99.90;;;;;;5055391;28;20220;-50
2022/12/26 13:49:06;;;;;;;5.53;1.37;;;8.00;99.90;;;;;;5055322;28;20289;-50
2022/12/26 13:51:53;;;;;;;7.50;1.70;;;8.00;99.90;;;;;;5054953;28;20274;-50
2022/12/26 13:54:23;;;;;;;6.97;1.33;;;8.00;99.90;;;;;;5054846;28;20227;-51
2022/12/26 13:57:26;;;;;;;8.07;1.70;;;7.90;99.90;;;;;;5054894;28;20600;-50
2022/12/26 14:00:11;;;;;;;8.30;1.60;;;7.80;99.90;;;;;;5055230;28;20583;-50
2022/12/26 14:03:27;;;;;;;6.47;1.50;;;7.80;99.90;;;;;;5054106;28;20608;-49
2022/12/26 14:06:14;;;;;;;8.17;1.30;;;7.80;99.90;;;;;;5062263;28;20304;-51
2022/12/26 14:09:02;;;;;;;8.87;1.30;;;7.70;99.90;;;;;;5066457;28;20230;-50
2022/12/26 14:11:45;;;;;;;7.27;1.20;;;7.60;99.90;;;;;;5066712;28;20221;-52
2022/12/26 14:14:22;;;;;;;6.23;1.20;;;7.50;99.90;;;;;;5063854;28;20223;-50
2022/12/26 14:16:58;;;;;;;3.60;1.10;;;7.50;99.90;;;;;;5064976;28;20231;-48
2022/12/26 14:19:40;;;;;;;9.30;1.73;;;7.50;99.90;;;;;;5067737;28;20247;-47
2022/12/26 14:22:15;;;;;;;5.27;1.20;;;7.40;99.90;;;;;;5067887;28;20231;-49
2022/12/26 14:25:08;;;;;;;8.67;1.30;;;7.40;99.90;;;;;;5068179;28;20226;-52
2022/12/26 14:27:44;;;;;;;14.80;1.97;;;7.40;99.90;;;;;;5066937;28;20219;-50
2022/12/26 14:30:26;;;;;;;4.67;1.20;;;7.40;99.90;;;;;;5065529;28;20202;-49
2022/12/26 14:33:24;;;;;;;4.43;0.97;;;7.30;99.90;;;;;;5065614;28;20207;-47
2022/12/26 14:36:00;;;;;;;6.77;1.27;;;7.20;99.90;;;;;;5066898;28;20219;-52
2022/12/26 14:38:40;;;;;;;7.23;1.33;;;7.20;99.90;;;;;;5067848;28;20203;-51
2022/12/26 14:43:09;;;;;;;8.13;1.27;;;7.10;99.90;;;;;;5067311;28;20211;-50
2022/12/26 14:44:10;;;;;;;8.57;1.30;;;7.10;99.90;;;;;;5068544;28;20679;-48
2022/12/26 14:46:58;;;;;;;10.07;1.50;;;7.10;99.90;;;;;;5067592;28;20210;-49
2022/12/26 14:49:37;;;;;;;9.40;1.50;;;7.00;99.90;;;;;;5068050;28;20210;-48
2022/12/26 14:52:43;;;;;;;6.47;1.10;;;7.00;99.90;;;;;;5067171;28;20207;-48
2022/12/26 14:55:41;;;;;;;10.33;1.90;;;6.90;99.90;;;;;;5044110;28;20679;-50
2022/12/26 14:58:28;;;;;;;10.50;2.10;;;6.90;99.90;;;;;;5053748;28;20310;-50
2022/12/26 15:01:36;;;;;;;7.33;2.80;;;6.90;99.90;;;;;;5043988;28;20198;-52
2022/12/26 15:04:34;;;;;;;10.30;1.60;;;6.90;99.90;;;;;;5062609;28;20235;-51
2022/12/26 15:07:24;;;;;;;8.57;1.67;;;6.90;99.90;;;;;;5032721;28;20231;-51
2022/12/26 15:10:22;;;;;;;8.53;1.67;;;6.80;99.90;;;;;;5051580;28;20203;-51
2022/12/26 15:13:25;;;;;;;12.13;1.80;;;6.70;99.90;;;;;;5065892;28;20203;-48
2022/12/26 15:16:24;;;;;;;8.47;2.00;;;6.70;99.90;;;;;;5053286;28;20230;-48
2022/12/26 15:19:17;;;;;;;8.53;1.77;;;6.60;99.90;;;;;;5048369;28;20239;-51
2022/12/26 15:22:32;;;;;;;10.20;1.60;;;6.70;99.90;;;;;;5067613;28;20196;-49
2022/12/26 15:25:35;;;;;;;10.83;1.80;;;6.60;99.90;;;;;;5067608;28;20204;-49
2022/12/26 15:28:35;;;;;;;11.33;1.87;;;6.50;99.90;;;;;;5066677;28;20563;-49
2022/12/26 15:31:26;;;;;;;10.53;1.63;;;6.50;99.90;;;;;;5058924;28;20334;-50
2022/12/26 15:34:00;;;;;;;8.13;1.50;;;6.50;99.90;;;;;;5064357;28;20450;-50